sensor_id;sensor_type;location;lat;lon;timestamp;P1;durP1;ratioP1;P2;durP2;ratioP2
18190;SDS011;47004;51.366;12.348;2022-10-16T00:01:03;1.17;;;0.70;;
18190;SDS011;47004;51.366;12.348;2022-10-16T00:03:06;0.97;;;0.70;;
18190;SDS011;47004;51.366;12.348;2022-10-16T00:05:10;2.17;;;0.77;;
18190;SDS011;47004;51.366;12.348;2022-10-16T00:07:12;0.90;;;0.60;;
18190;SDS011;47004;51.366;12.348;2022-10-16T00:09:15;0.93;;;0.87;;
18190;SDS011;47004;51.366;12.348;2022-10-16T00:11:19;1.30;;;0.80;;
18190;SDS011;47004;51.366;12.348;2022-10-16T00:13:22;2.13;;;0.83;;
18190;SDS011;47004;51.366;12.348;2022-10-16T00:15:24;1.10;;;0.87;;
18190;SDS011;47004;51.366;12.348;2022-10-16T00:17:27;1.17;;;0.97;;
18190;SDS011;47004;51.366;12.348;2022-10-16T00:19:31;1.90;;;0.87;;
18190;SDS011;47004;51.366;12.348;2022-10-16T00:21:33;1.00;;;0.90;;
18190;SDS011;47004;51.366;12.348;2022-10-16T00:23:35;1.00;;;0.87;;
18190;SDS011;47004;51.366;12.348;2022-10-16T00:25:37;1.03;;;0.90;;
18190;SDS011;47004;51.366;12.348;2022-10-16T00:27:39;0.80;;;0.80;;
18190;SDS011;47004;51.366;12.348;2022-10-16T00:29:41;1.17;;;0.80;;
18190;SDS011;47004;51.366;12.348;2022-10-16T00:31:43;0.87;;;0.80;;
18190;SDS011;47004;51.366;12.348;2022-10-16T00:33:46;2.47;;;0.90;;
18190;SDS011;47004;51.366;12.348;2022-10-16T00:35:49;0.90;;;0.80;;
18190;SDS011;47004;51.366;12.348;2022-10-16T00:37:51;0.90;;;0.77;;
18190;SDS011;47004;51.366;12.348;2022-10-16T00:39:53;1.10;;;0.80;;
18190;SDS011;47004;51.366;12.348;2022-10-16T00:41:55;0.90;;;0.73;;
18190;SDS011;47004;51.366;12.348;2022-10-16T00:43:58;1.27;;;0.90;;
18190;SDS011;47004;51.366;12.348;2022-10-16T00:46:01;1.47;;;0.70;;
18190;SDS011;47004;51.366;12.348;2022-10-16T00:48:06;0.70;;;0.70;;
18190;SDS011;47004;51.366;12.348;2022-10-16T00:50:16;1.53;;;1.00;;
18190;SDS011;47004;51.366;12.348;2022-10-16T00:52:25;3.03;;;0.80;;
18190;SDS011;47004;51.366;12.348;2022-10-16T00:54:27;1.67;;;0.90;;
18190;SDS011;47004;51.366;12.348;2022-10-16T00:56:31;0.90;;;0.80;;
18190;SDS011;47004;51.366;12.348;2022-10-16T00:58:34;1.13;;;0.80;;
18190;SDS011;47004;51.366;12.348;2022-10-16T01:00:36;1.13;;;0.80;;
18190;SDS011;47004;51.366;12.348;2022-10-16T01:02:38;0.73;;;0.60;;
18190;SDS011;47004;51.366;12.348;2022-10-16T01:04:41;1.60;;;0.60;;
18190;SDS011;47004;51.366;12.348;2022-10-16T01:06:49;1.43;;;0.70;;
18190;SDS011;47004;51.366;12.348;2022-10-16T01:09:00;0.63;;;0.63;;
18190;SDS011;47004;51.366;12.348;2022-10-16T01:11:11;1.40;;;0.80;;
18190;SDS011;47004;51.366;12.348;2022-10-16T01:13:23;2.23;;;0.60;;
18190;SDS011;47004;51.366;12.348;2022-10-16T01:15:29;1.23;;;0.50;;
18190;SDS011;47004;51.366;12.348;2022-10-16T01:17:37;2.17;;;0.90;;
18190;SDS011;47004;51.366;12.348;2022-10-16T01:19:52;0.50;;;0.50;;
18190;SDS011;47004;51.366;12.348;2022-10-16T01:22:05;1.33;;;0.70;;
18190;SDS011;47004;51.366;12.348;2022-10-16T01:24:11;2.63;;;0.80;;
18190;SDS011;47004;51.366;12.348;2022-10-16T01:26:29;1.83;;;0.73;;
18190;SDS011;47004;51.366;12.348;2022-10-16T01:28:39;0.70;;;0.60;;
18190;SDS011;47004;51.366;12.348;2022-10-16T01:30:47;1.00;;;0.87;;
18190;SDS011;47004;51.366;12.348;2022-10-16T01:32:55;1.27;;;0.80;;
18190;SDS011;47004;51.366;12.348;2022-10-16T01:35:02;2.50;;;0.90;;
18190;SDS011;47004;51.366;12.348;2022-10-16T01:37:11;0.60;;;0.60;;
18190;SDS011;47004;51.366;12.348;2022-10-16T01:39:17;1.07;;;0.70;;
18190;SDS011;47004;51.366;12.348;2022-10-16T01:41:23;0.80;;;0.70;;
18190;SDS011;47004;51.366;12.348;2022-10-16T01:43:31;0.93;;;0.73;;
18190;SDS011;47004;51.366;12.348;2022-10-16T01:45:38;0.70;;;0.60;;
18190;SDS011;47004;51.366;12.348;2022-10-16T01:47:42;1.03;;;0.70;;
18190;SDS011;47004;51.366;12.348;2022-10-16T01:49:45;1.13;;;0.73;;
18190;SDS011;47004;51.366;12.348;2022-10-16T01:51:48;0.90;;;0.60;;
18190;SDS011;47004;51.366;12.348;2022-10-16T01:53:54;3.00;;;0.60;;
18190;SDS011;47004;51.366;12.348;2022-10-16T01:55:59;0.67;;;0.30;;
18190;SDS011;47004;51.366;12.348;2022-10-16T01:58:03;0.70;;;0.70;;
18190;SDS011;47004;51.366;12.348;2022-10-16T02:00:09;0.50;;;0.47;;
18190;SDS011;47004;51.366;12.348;2022-10-16T02:02:15;2.13;;;0.80;;
18190;SDS011;47004;51.366;12.348;2022-10-16T02:04:21;2.33;;;0.60;;
18190;SDS011;47004;51.366;12.348;2022-10-16T02:06:27;0.87;;;0.70;;
18190;SDS011;47004;51.366;12.348;2022-10-16T02:08:29;0.70;;;0.57;;
18190;SDS011;47004;51.366;12.348;2022-10-16T02:10:32;0.63;;;0.60;;
18190;SDS011;47004;51.366;12.348;2022-10-16T02:12:36;1.63;;;0.70;;
18190;SDS011;47004;51.366;12.348;2022-10-16T02:14:43;0.90;;;0.60;;
18190;SDS011;47004;51.366;12.348;2022-10-16T02:16:46;0.60;;;0.60;;
18190;SDS011;47004;51.366;12.348;2022-10-16T02:18:49;0.70;;;0.70;;
18190;SDS011;47004;51.366;12.348;2022-10-16T02:20:53;0.50;;;0.50;;
18190;SDS011;47004;51.366;12.348;2022-10-16T02:22:58;0.60;;;0.57;;
18190;SDS011;47004;51.366;12.348;2022-10-16T02:25:05;1.60;;;0.77;;
18190;SDS011;47004;51.366;12.348;2022-10-16T02:27:11;0.73;;;0.60;;
18190;SDS011;47004;51.366;12.348;2022-10-16T02:29:17;0.60;;;0.60;;
18190;SDS011;47004;51.366;12.348;2022-10-16T02:31:23;0.80;;;0.63;;
18190;SDS011;47004;51.366;12.348;2022-10-16T02:33:29;0.80;;;0.80;;
18190;SDS011;47004;51.366;12.348;2022-10-16T02:35:33;2.80;;;1.07;;
18190;SDS011;47004;51.366;12.348;2022-10-16T02:37:37;0.60;;;0.60;;
18190;SDS011;47004;51.366;12.348;2022-10-16T02:39:41;0.80;;;0.70;;
18190;SDS011;47004;51.366;12.348;2022-10-16T02:41:43;0.53;;;0.53;;
18190;SDS011;47004;51.366;12.348;2022-10-16T02:43:45;0.60;;;0.57;;
18190;SDS011;47004;51.366;12.348;2022-10-16T02:45:46;0.80;;;0.50;;
18190;SDS011;47004;51.366;12.348;2022-10-16T02:47:48;0.57;;;0.57;;
18190;SDS011;47004;51.366;12.348;2022-10-16T02:49:50;1.20;;;0.80;;
18190;SDS011;47004;51.366;12.348;2022-10-16T02:51:53;0.60;;;0.50;;
18190;SDS011;47004;51.366;12.348;2022-10-16T02:53:55;0.60;;;0.60;;
18190;SDS011;47004;51.366;12.348;2022-10-16T02:55:57;0.70;;;0.70;;
18190;SDS011;47004;51.366;12.348;2022-10-16T02:57:59;0.67;;;0.50;;
18190;SDS011;47004;51.366;12.348;2022-10-16T03:00:02;0.60;;;0.60;;
18190;SDS011;47004;51.366;12.348;2022-10-16T03:02:04;0.67;;;0.67;;
18190;SDS011;47004;51.366;12.348;2022-10-16T03:04:06;0.80;;;0.77;;
18190;SDS011;47004;51.366;12.348;2022-10-16T03:06:08;0.50;;;0.50;;
18190;SDS011;47004;51.366;12.348;2022-10-16T03:08:11;1.43;;;0.70;;
18190;SDS011;47004;51.366;12.348;2022-10-16T03:10:14;0.47;;;0.47;;
18190;SDS011;47004;51.366;12.348;2022-10-16T03:12:16;0.70;;;0.53;;
18190;SDS011;47004;51.366;12.348;2022-10-16T03:14:18;0.50;;;0.50;;
18190;SDS011;47004;51.366;12.348;2022-10-16T03:16:20;1.10;;;0.60;;
18190;SDS011;47004;51.366;12.348;2022-10-16T03:18:21;1.33;;;0.50;;
18190;SDS011;47004;51.366;12.348;2022-10-16T03:20:23;0.60;;;0.60;;
18190;SDS011;47004;51.366;12.348;2022-10-16T03:22:26;0.70;;;0.70;;
18190;SDS011;47004;51.366;12.348;2022-10-16T03:24:29;0.80;;;0.60;;
18190;SDS011;47004;51.366;12.348;2022-10-16T03:26:31;0.70;;;0.70;;
18190;SDS011;47004;51.366;12.348;2022-10-16T03:28:33;0.93;;;0.67;;
18190;SDS011;47004;51.366;12.348;2022-10-16T03:30:35;0.70;;;0.70;;
18190;SDS011;47004;51.366;12.348;2022-10-16T03:32:37;0.53;;;0.53;;
18190;SDS011;47004;51.366;12.348;2022-10-16T03:34:39;0.60;;;0.60;;
18190;SDS011;47004;51.366;12.348;2022-10-16T03:36:41;1.00;;;0.80;;
18190;SDS011;47004;51.366;12.348;2022-10-16T03:38:42;0.93;;;0.70;;
18190;SDS011;47004;51.366;12.348;2022-10-16T03:40:46;1.77;;;0.70;;
18190;SDS011;47004;51.366;12.348;2022-10-16T03:42:47;0.63;;;0.60;;
18190;SDS011;47004;51.366;12.348;2022-10-16T03:44:49;0.93;;;0.60;;
18190;SDS011;47004;51.366;12.348;2022-10-16T03:46:51;1.17;;;0.80;;
18190;SDS011;47004;51.366;12.348;2022-10-16T03:48:53;0.60;;;0.60;;
18190;SDS011;47004;51.366;12.348;2022-10-16T03:50:55;0.77;;;0.73;;
18190;SDS011;47004;51.366;12.348;2022-10-16T03:52:57;1.17;;;0.53;;
18190;SDS011;47004;51.366;12.348;2022-10-16T03:54:59;1.17;;;0.70;;
18190;SDS011;47004;51.366;12.348;2022-10-16T03:57:02;0.80;;;0.53;;
18190;SDS011;47004;51.366;12.348;2022-10-16T03:59:04;0.80;;;0.70;;
18190;SDS011;47004;51.366;12.348;2022-10-16T04:01:06;1.17;;;0.60;;
18190;SDS011;47004;51.366;12.348;2022-10-16T04:03:08;0.80;;;0.67;;
18190;SDS011;47004;51.366;12.348;2022-10-16T04:05:10;2.43;;;0.97;;
18190;SDS011;47004;51.366;12.348;2022-10-16T04:07:12;0.70;;;0.60;;
18190;SDS011;47004;51.366;12.348;2022-10-16T04:09:13;0.90;;;0.63;;
18190;SDS011;47004;51.366;12.348;2022-10-16T04:11:15;0.70;;;0.63;;
18190;SDS011;47004;51.366;12.348;2022-10-16T04:13:18;0.60;;;0.60;;
18190;SDS011;47004;51.366;12.348;2022-10-16T04:15:20;0.73;;;0.60;;
18190;SDS011;47004;51.366;12.348;2022-10-16T04:17:22;0.93;;;0.60;;
18190;SDS011;47004;51.366;12.348;2022-10-16T04:19:24;1.43;;;0.60;;
18190;SDS011;47004;51.366;12.348;2022-10-16T04:21:26;0.67;;;0.67;;
18190;SDS011;47004;51.366;12.348;2022-10-16T04:23:28;1.37;;;0.80;;
18190;SDS011;47004;51.366;12.348;2022-10-16T04:25:29;0.60;;;0.60;;
18190;SDS011;47004;51.366;12.348;2022-10-16T04:27:31;0.70;;;0.70;;
18190;SDS011;47004;51.366;12.348;2022-10-16T04:29:35;1.10;;;0.70;;
18190;SDS011;47004;51.366;12.348;2022-10-16T04:31:36;2.33;;;0.87;;
18190;SDS011;47004;51.366;12.348;2022-10-16T04:33:38;0.73;;;0.70;;
18190;SDS011;47004;51.366;12.348;2022-10-16T04:35:43;1.40;;;0.90;;
18190;SDS011;47004;51.366;12.348;2022-10-16T04:37:44;0.87;;;0.77;;
18190;SDS011;47004;51.366;12.348;2022-10-16T04:39:47;0.83;;;0.80;;
18190;SDS011;47004;51.366;12.348;2022-10-16T04:41:48;1.77;;;0.70;;
18190;SDS011;47004;51.366;12.348;2022-10-16T04:43:50;0.70;;;0.70;;
18190;SDS011;47004;51.366;12.348;2022-10-16T04:45:53;0.63;;;0.63;;
18190;SDS011;47004;51.366;12.348;2022-10-16T04:47:56;0.80;;;0.80;;
18190;SDS011;47004;51.366;12.348;2022-10-16T04:49:58;0.70;;;0.70;;
18190;SDS011;47004;51.366;12.348;2022-10-16T04:52:02;0.70;;;0.70;;
18190;SDS011;47004;51.366;12.348;2022-10-16T04:54:04;1.93;;;0.73;;
18190;SDS011;47004;51.366;12.348;2022-10-16T04:56:06;1.23;;;0.80;;
18190;SDS011;47004;51.366;12.348;2022-10-16T04:58:08;2.17;;;1.00;;
18190;SDS011;47004;51.366;12.348;2022-10-16T05:00:10;1.20;;;1.10;;
18190;SDS011;47004;51.366;12.348;2022-10-16T05:02:14;0.80;;;0.80;;
18190;SDS011;47004;51.366;12.348;2022-10-16T05:04:16;1.00;;;0.90;;
18190;SDS011;47004;51.366;12.348;2022-10-16T05:06:18;4.03;;;0.90;;
18190;SDS011;47004;51.366;12.348;2022-10-16T05:08:19;1.00;;;0.80;;
18190;SDS011;47004;51.366;12.348;2022-10-16T05:10:21;1.63;;;0.73;;
18190;SDS011;47004;51.366;12.348;2022-10-16T05:12:23;1.10;;;1.00;;
18190;SDS011;47004;51.366;12.348;2022-10-16T05:14:25;0.97;;;0.80;;
18190;SDS011;47004;51.366;12.348;2022-10-16T05:16:26;1.90;;;1.30;;
18190;SDS011;47004;51.366;12.348;2022-10-16T05:18:29;1.33;;;1.10;;
18190;SDS011;47004;51.366;12.348;2022-10-16T05:20:31;1.43;;;1.10;;
18190;SDS011;47004;51.366;12.348;2022-10-16T05:22:33;1.33;;;1.10;;
18190;SDS011;47004;51.366;12.348;2022-10-16T05:24:35;1.13;;;1.03;;
18190;SDS011;47004;51.366;12.348;2022-10-16T05:26:37;0.80;;;0.70;;
18190;SDS011;47004;51.366;12.348;2022-10-16T05:28:39;0.97;;;0.80;;
18190;SDS011;47004;51.366;12.348;2022-10-16T05:30:40;1.03;;;0.80;;
18190;SDS011;47004;51.366;12.348;2022-10-16T05:32:45;1.27;;;0.77;;
18190;SDS011;47004;51.366;12.348;2022-10-16T05:34:50;1.03;;;0.90;;
18190;SDS011;47004;51.366;12.348;2022-10-16T05:36:52;2.13;;;0.97;;
18190;SDS011;47004;51.366;12.348;2022-10-16T05:38:54;0.70;;;0.70;;
18190;SDS011;47004;51.366;12.348;2022-10-16T05:40:56;1.00;;;0.83;;
18190;SDS011;47004;51.366;12.348;2022-10-16T05:42:58;2.17;;;0.90;;
18190;SDS011;47004;51.366;12.348;2022-10-16T05:45:00;0.90;;;0.90;;
18190;SDS011;47004;51.366;12.348;2022-10-16T05:47:02;1.00;;;0.80;;
18190;SDS011;47004;51.366;12.348;2022-10-16T05:49:04;1.10;;;0.80;;
18190;SDS011;47004;51.366;12.348;2022-10-16T05:51:07;0.80;;;0.80;;
18190;SDS011;47004;51.366;12.348;2022-10-16T05:53:12;1.73;;;1.00;;
18190;SDS011;47004;51.366;12.348;2022-10-16T05:55:14;2.23;;;0.93;;
18190;SDS011;47004;51.366;12.348;2022-10-16T05:57:16;1.07;;;0.93;;
18190;SDS011;47004;51.366;12.348;2022-10-16T05:59:18;1.20;;;0.90;;
18190;SDS011;47004;51.366;12.348;2022-10-16T06:01:20;1.10;;;1.00;;
18190;SDS011;47004;51.366;12.348;2022-10-16T06:03:24;0.90;;;0.90;;
18190;SDS011;47004;51.366;12.348;2022-10-16T06:05:26;1.20;;;0.90;;
18190;SDS011;47004;51.366;12.348;2022-10-16T06:07:33;2.10;;;1.10;;
18190;SDS011;47004;51.366;12.348;2022-10-16T06:09:35;1.13;;;0.93;;
18190;SDS011;47004;51.366;12.348;2022-10-16T06:11:37;0.90;;;0.80;;
18190;SDS011;47004;51.366;12.348;2022-10-16T06:13:39;5.20;;;2.83;;
18190;SDS011;47004;51.366;12.348;2022-10-16T06:15:42;5.90;;;3.73;;
18190;SDS011;47004;51.366;12.348;2022-10-16T06:17:46;4.87;;;2.83;;
18190;SDS011;47004;51.366;12.348;2022-10-16T06:19:48;3.13;;;1.90;;
18190;SDS011;47004;51.366;12.348;2022-10-16T06:21:50;3.30;;;1.93;;
18190;SDS011;47004;51.366;12.348;2022-10-16T06:23:54;2.73;;;1.87;;
18190;SDS011;47004;51.366;12.348;2022-10-16T06:26:03;2.50;;;1.67;;
18190;SDS011;47004;51.366;12.348;2022-10-16T06:28:06;1.80;;;1.40;;
18190;SDS011;47004;51.366;12.348;2022-10-16T06:30:08;2.00;;;1.33;;
18190;SDS011;47004;51.366;12.348;2022-10-16T06:32:11;1.23;;;1.13;;
18190;SDS011;47004;51.366;12.348;2022-10-16T06:34:13;1.40;;;1.20;;
18190;SDS011;47004;51.366;12.348;2022-10-16T06:36:15;2.20;;;1.20;;
18190;SDS011;47004;51.366;12.348;2022-10-16T06:38:18;1.40;;;1.10;;
18190;SDS011;47004;51.366;12.348;2022-10-16T06:40:22;1.10;;;1.00;;
18190;SDS011;47004;51.366;12.348;2022-10-16T06:42:24;0.97;;;0.87;;
18190;SDS011;47004;51.366;12.348;2022-10-16T06:44:26;1.20;;;0.90;;
18190;SDS011;47004;51.366;12.348;2022-10-16T06:46:28;1.00;;;0.90;;
18190;SDS011;47004;51.366;12.348;2022-10-16T06:48:30;1.90;;;0.73;;
18190;SDS011;47004;51.366;12.348;2022-10-16T06:50:35;0.90;;;0.80;;
18190;SDS011;47004;51.366;12.348;2022-10-16T06:52:37;1.70;;;1.30;;
18190;SDS011;47004;51.366;12.348;2022-10-16T06:54:39;4.27;;;2.43;;
18190;SDS011;47004;51.366;12.348;2022-10-16T06:56:42;6.67;;;3.73;;
18190;SDS011;47004;51.366;12.348;2022-10-16T06:58:44;3.53;;;2.23;;
18190;SDS011;47004;51.366;12.348;2022-10-16T07:00:47;2.87;;;1.73;;
18190;SDS011;47004;51.366;12.348;2022-10-16T07:02:49;2.17;;;1.67;;
18190;SDS011;47004;51.366;12.348;2022-10-16T07:04:51;1.97;;;1.50;;
18190;SDS011;47004;51.366;12.348;2022-10-16T07:06:53;3.00;;;1.37;;
18190;SDS011;47004;51.366;12.348;2022-10-16T07:08:55;2.90;;;1.30;;
18190;SDS011;47004;51.366;12.348;2022-10-16T07:11:00;1.90;;;1.30;;
18190;SDS011;47004;51.366;12.348;2022-10-16T07:13:03;1.73;;;1.40;;
18190;SDS011;47004;51.366;12.348;2022-10-16T07:15:07;3.10;;;2.33;;
18190;SDS011;47004;51.366;12.348;2022-10-16T07:17:10;3.20;;;2.10;;
18190;SDS011;47004;51.366;12.348;2022-10-16T07:19:11;2.27;;;1.80;;
18190;SDS011;47004;51.366;12.348;2022-10-16T07:21:15;2.50;;;1.50;;
18190;SDS011;47004;51.366;12.348;2022-10-16T07:23:22;2.93;;;1.40;;
18190;SDS011;47004;51.366;12.348;2022-10-16T07:25:25;2.20;;;1.50;;
18190;SDS011;47004;51.366;12.348;2022-10-16T07:27:27;1.60;;;1.30;;
18190;SDS011;47004;51.366;12.348;2022-10-16T07:29:31;2.27;;;1.17;;
18190;SDS011;47004;51.366;12.348;2022-10-16T07:31:33;2.03;;;1.20;;
18190;SDS011;47004;51.366;12.348;2022-10-16T07:33:35;0.80;;;0.80;;
18190;SDS011;47004;51.366;12.348;2022-10-16T07:35:37;2.57;;;1.10;;
18190;SDS011;47004;51.366;12.348;2022-10-16T07:37:39;1.63;;;1.13;;
18190;SDS011;47004;51.366;12.348;2022-10-16T07:39:45;1.23;;;0.90;;
18190;SDS011;47004;51.366;12.348;2022-10-16T07:41:46;1.33;;;1.00;;
18190;SDS011;47004;51.366;12.348;2022-10-16T07:43:48;1.33;;;1.00;;
18190;SDS011;47004;51.366;12.348;2022-10-16T07:45:53;1.83;;;0.90;;
18190;SDS011;47004;51.366;12.348;2022-10-16T07:47:55;0.80;;;0.70;;
18190;SDS011;47004;51.366;12.348;2022-10-16T07:49:57;0.90;;;0.70;;
18190;SDS011;47004;51.366;12.348;2022-10-16T07:51:59;0.87;;;0.77;;
18190;SDS011;47004;51.366;12.348;2022-10-16T07:54:03;0.83;;;0.73;;
18190;SDS011;47004;51.366;12.348;2022-10-16T07:56:07;1.87;;;0.80;;
18190;SDS011;47004;51.366;12.348;2022-10-16T07:58:10;0.80;;;0.80;;
18190;SDS011;47004;51.366;12.348;2022-10-16T08:00:12;2.60;;;0.90;;
18190;SDS011;47004;51.366;12.348;2022-10-16T08:02:16;1.33;;;0.80;;
18190;SDS011;47004;51.366;12.348;2022-10-16T08:04:18;2.50;;;1.00;;
18190;SDS011;47004;51.366;12.348;2022-10-16T08:06:20;6.03;;;1.03;;
18190;SDS011;47004;51.366;12.348;2022-10-16T08:08:22;0.60;;;0.60;;
18190;SDS011;47004;51.366;12.348;2022-10-16T08:10:25;0.90;;;0.80;;
18190;SDS011;47004;51.366;12.348;2022-10-16T08:12:28;3.80;;;0.70;;
18190;SDS011;47004;51.366;12.348;2022-10-16T08:14:29;0.83;;;0.70;;
18190;SDS011;47004;51.366;12.348;2022-10-16T08:16:31;1.00;;;0.77;;
18190;SDS011;47004;51.366;12.348;2022-10-16T08:18:35;1.87;;;0.90;;
18190;SDS011;47004;51.366;12.348;2022-10-16T08:20:37;1.30;;;0.67;;
18190;SDS011;47004;51.366;12.348;2022-10-16T08:22:39;1.37;;;0.70;;
18190;SDS011;47004;51.366;12.348;2022-10-16T08:24:41;0.53;;;0.53;;
18190;SDS011;47004;51.366;12.348;2022-10-16T08:26:43;1.70;;;1.07;;
18190;SDS011;47004;51.366;12.348;2022-10-16T08:28:44;1.70;;;1.20;;
18190;SDS011;47004;51.366;12.348;2022-10-16T08:30:46;2.50;;;0.70;;
18190;SDS011;47004;51.366;12.348;2022-10-16T08:32:48;1.03;;;0.70;;
18190;SDS011;47004;51.366;12.348;2022-10-16T08:34:52;1.73;;;1.00;;
18190;SDS011;47004;51.366;12.348;2022-10-16T08:36:54;2.00;;;0.60;;
18190;SDS011;47004;51.366;12.348;2022-10-16T08:38:56;0.70;;;0.60;;
18190;SDS011;47004;51.366;12.348;2022-10-16T08:41:01;1.03;;;0.70;;
18190;SDS011;47004;51.366;12.348;2022-10-16T08:43:20;0.50;;;0.50;;
18190;SDS011;47004;51.366;12.348;2022-10-16T08:45:34;0.90;;;0.70;;
18190;SDS011;47004;51.366;12.348;2022-10-16T08:47:44;1.77;;;0.90;;
18190;SDS011;47004;51.366;12.348;2022-10-16T08:49:55;0.93;;;0.80;;
18190;SDS011;47004;51.366;12.348;2022-10-16T08:51:59;0.60;;;0.60;;
18190;SDS011;47004;51.366;12.348;2022-10-16T08:54:01;0.50;;;0.50;;
18190;SDS011;47004;51.366;12.348;2022-10-16T08:56:05;0.80;;;0.60;;
18190;SDS011;47004;51.366;12.348;2022-10-16T08:58:10;0.40;;;0.30;;
18190;SDS011;47004;51.366;12.348;2022-10-16T09:00:14;1.50;;;0.40;;
18190;SDS011;47004;51.366;12.348;2022-10-16T09:02:24;0.87;;;0.70;;
18190;SDS011;47004;51.366;12.348;2022-10-16T09:04:44;1.07;;;0.80;;
18190;SDS011;47004;51.366;12.348;2022-10-16T09:06:57;0.30;;;0.30;;
18190;SDS011;47004;51.366;12.348;2022-10-16T09:09:07;0.90;;;0.40;;
18190;SDS011;47004;51.366;12.348;2022-10-16T09:11:21;0.40;;;0.37;;
18190;SDS011;47004;51.366;12.348;2022-10-16T09:13:38;0.40;;;0.40;;
18190;SDS011;47004;51.366;12.348;2022-10-16T09:15:48;1.63;;;0.40;;
18190;SDS011;47004;51.366;12.348;2022-10-16T09:17:57;0.40;;;0.40;;
18190;SDS011;47004;51.366;12.348;2022-10-16T09:20:19;0.30;;;0.30;;
18190;SDS011;47004;51.366;12.348;2022-10-16T09:22:31;0.63;;;0.40;;
18190;SDS011;47004;51.366;12.348;2022-10-16T09:24:33;1.37;;;0.40;;
18190;SDS011;47004;51.366;12.348;2022-10-16T09:26:35;1.20;;;0.40;;
18190;SDS011;47004;51.366;12.348;2022-10-16T09:28:37;1.03;;;0.50;;
18190;SDS011;47004;51.366;12.348;2022-10-16T09:30:39;2.70;;;0.40;;
18190;SDS011;47004;51.366;12.348;2022-10-16T09:32:42;0.93;;;0.57;;
18190;SDS011;47004;51.366;12.348;2022-10-16T09:34:46;0.37;;;0.37;;
18190;SDS011;47004;51.366;12.348;2022-10-16T09:36:50;0.40;;;0.40;;
18190;SDS011;47004;51.366;12.348;2022-10-16T09:39:03;0.97;;;0.57;;
18190;SDS011;47004;51.366;12.348;2022-10-16T09:41:11;0.90;;;0.53;;
18190;SDS011;47004;51.366;12.348;2022-10-16T09:43:20;0.70;;;0.60;;
18190;SDS011;47004;51.366;12.348;2022-10-16T09:45:24;1.37;;;0.93;;
18190;SDS011;47004;51.366;12.348;2022-10-16T09:47:27;1.20;;;0.80;;
18190;SDS011;47004;51.366;12.348;2022-10-16T09:49:30;1.50;;;0.83;;
18190;SDS011;47004;51.366;12.348;2022-10-16T09:51:33;1.00;;;0.70;;
18190;SDS011;47004;51.366;12.348;2022-10-16T09:53:39;0.67;;;0.63;;
18190;SDS011;47004;51.366;12.348;2022-10-16T09:55:50;0.70;;;0.60;;
18190;SDS011;47004;51.366;12.348;2022-10-16T09:57:53;0.70;;;0.50;;
18190;SDS011;47004;51.366;12.348;2022-10-16T09:59:56;0.50;;;0.50;;
18190;SDS011;47004;51.366;12.348;2022-10-16T10:02:01;0.50;;;0.50;;
18190;SDS011;47004;51.366;12.348;2022-10-16T10:04:07;1.57;;;0.60;;
18190;SDS011;47004;51.366;12.348;2022-10-16T10:06:17;0.80;;;0.63;;
18190;SDS011;47004;51.366;12.348;2022-10-16T10:08:23;0.60;;;0.50;;
18190;SDS011;47004;51.366;12.348;2022-10-16T10:10:26;0.70;;;0.60;;
18190;SDS011;47004;51.366;12.348;2022-10-16T10:12:31;0.60;;;0.60;;
18190;SDS011;47004;51.366;12.348;2022-10-16T10:14:36;0.60;;;0.50;;
18190;SDS011;47004;51.366;12.348;2022-10-16T10:16:40;0.87;;;0.70;;
18190;SDS011;47004;51.366;12.348;2022-10-16T10:18:42;2.63;;;0.50;;
18190;SDS011;47004;51.366;12.348;2022-10-16T10:20:44;0.57;;;0.57;;
18190;SDS011;47004;51.366;12.348;2022-10-16T10:22:46;0.50;;;0.50;;
18190;SDS011;47004;51.366;12.348;2022-10-16T10:27:22;1.40;;;0.53;;
18190;SDS011;47004;51.366;12.348;2022-10-16T10:29:37;0.70;;;0.60;;
18190;SDS011;47004;51.366;12.348;2022-10-16T10:31:52;0.63;;;0.60;;
18190;SDS011;47004;51.366;12.348;2022-10-16T10:34:01;0.60;;;0.60;;
18190;SDS011;47004;51.366;12.348;2022-10-16T10:36:14;1.60;;;0.50;;
18190;SDS011;47004;51.366;12.348;2022-10-16T10:38:27;0.50;;;0.50;;
18190;SDS011;47004;51.366;12.348;2022-10-16T10:40:43;0.53;;;0.50;;
18190;SDS011;47004;51.366;12.348;2022-10-16T10:42:51;0.60;;;0.60;;
18190;SDS011;47004;51.366;12.348;2022-10-16T10:45:08;0.43;;;0.43;;
18190;SDS011;47004;51.366;12.348;2022-10-16T10:47:20;3.97;;;1.60;;
18190;SDS011;47004;51.366;12.348;2022-10-16T10:49:32;1.97;;;1.50;;
18190;SDS011;47004;51.366;12.348;2022-10-16T10:51:44;1.00;;;0.90;;
18190;SDS011;47004;51.366;12.348;2022-10-16T10:54:03;2.57;;;0.97;;
18190;SDS011;47004;51.366;12.348;2022-10-16T10:56:16;1.20;;;1.10;;
18190;SDS011;47004;51.366;12.348;2022-10-16T10:58:41;1.13;;;0.80;;
18190;SDS011;47004;51.366;12.348;2022-10-16T11:00:54;1.23;;;0.80;;
18190;SDS011;47004;51.366;12.348;2022-10-16T11:03:04;0.77;;;0.70;;
18190;SDS011;47004;51.366;12.348;2022-10-16T11:05:28;0.63;;;0.63;;
18190;SDS011;47004;51.366;12.348;2022-10-16T11:07:38;0.60;;;0.60;;
18190;SDS011;47004;51.366;12.348;2022-10-16T11:09:43;1.00;;;0.70;;
18190;SDS011;47004;51.366;12.348;2022-10-16T11:11:49;1.47;;;0.70;;
18190;SDS011;47004;51.366;12.348;2022-10-16T11:13:55;0.70;;;0.70;;
18190;SDS011;47004;51.366;12.348;2022-10-16T11:16:03;3.27;;;0.90;;
18190;SDS011;47004;51.366;12.348;2022-10-16T11:18:15;0.87;;;0.70;;
18190;SDS011;47004;51.366;12.348;2022-10-16T11:20:21;1.73;;;1.30;;
18190;SDS011;47004;51.366;12.348;2022-10-16T11:22:27;1.17;;;1.03;;
18190;SDS011;47004;51.366;12.348;2022-10-16T11:24:35;1.53;;;1.20;;
18190;SDS011;47004;51.366;12.348;2022-10-16T11:26:42;1.50;;;1.00;;
18190;SDS011;47004;51.366;12.348;2022-10-16T11:28:49;1.10;;;1.00;;
18190;SDS011;47004;51.366;12.348;2022-10-16T11:30:53;1.90;;;1.27;;
18190;SDS011;47004;51.366;12.348;2022-10-16T11:33:03;1.30;;;1.20;;
18190;SDS011;47004;51.366;12.348;2022-10-16T11:35:25;1.53;;;1.30;;
18190;SDS011;47004;51.366;12.348;2022-10-16T11:37:39;1.40;;;1.20;;
18190;SDS011;47004;51.366;12.348;2022-10-16T11:39:44;1.50;;;1.40;;
18190;SDS011;47004;51.366;12.348;2022-10-16T11:41:48;1.30;;;1.20;;
18190;SDS011;47004;51.366;12.348;2022-10-16T11:43:55;2.27;;;1.23;;
18190;SDS011;47004;51.366;12.348;2022-10-16T11:46:16;1.20;;;1.07;;
18190;SDS011;47004;51.366;12.348;2022-10-16T11:48:24;1.07;;;0.97;;
18190;SDS011;47004;51.366;12.348;2022-10-16T11:50:33;1.20;;;1.03;;
18190;SDS011;47004;51.366;12.348;2022-10-16T11:52:40;1.50;;;1.20;;
18190;SDS011;47004;51.366;12.348;2022-10-16T11:54:52;1.70;;;1.33;;
18190;SDS011;47004;51.366;12.348;2022-10-16T11:56:59;1.33;;;1.03;;
18190;SDS011;47004;51.366;12.348;2022-10-16T11:59:13;1.13;;;1.03;;
18190;SDS011;47004;51.366;12.348;2022-10-16T12:01:22;0.70;;;0.70;;
18190;SDS011;47004;51.366;12.348;2022-10-16T12:03:33;0.93;;;0.90;;
18190;SDS011;47004;51.366;12.348;2022-10-16T12:05:48;1.03;;;0.97;;
18190;SDS011;47004;51.366;12.348;2022-10-16T12:08:08;1.20;;;1.10;;
18190;SDS011;47004;51.366;12.348;2022-10-16T12:10:18;1.47;;;1.13;;
18190;SDS011;47004;51.366;12.348;2022-10-16T12:12:25;1.00;;;0.90;;
18190;SDS011;47004;51.366;12.348;2022-10-16T12:14:35;0.80;;;0.80;;
18190;SDS011;47004;51.366;12.348;2022-10-16T12:16:50;1.40;;;0.83;;
18190;SDS011;47004;51.366;12.348;2022-10-16T12:21:16;0.80;;;0.80;;
18190;SDS011;47004;51.366;12.348;2022-10-16T12:23:19;1.00;;;0.80;;
18190;SDS011;47004;51.366;12.348;2022-10-16T12:25:24;0.70;;;0.70;;